Time;durP1;ratioP1;P1;durP2;ratioP2;P2;SDS_P1;SDS_P2;PMS_P1;PMS_P2;Temp;Humidity;BMP_temperature;BMP_pressure;BME280_temperature;BME280_humidity;BME280_pressure;Samples;Min_cycle;Max_cycle;Signal;HPM_P1;HPM_P2
2021/05/05 00:01:16;;;;;;;1.95;1.10;;;;;;;6.28;58.42;98610.13;5047821;28;20033;-60
2021/05/05 00:03:42;;;;;;;2.55;1.05;;;;;;;6.38;58.50;98632.31;5047830;28;20039;-60
2021/05/05 00:06:09;;;;;;;3.10;1.35;;;;;;;5.92;58.39;98553.66;5047624;28;20485;-61
2021/05/05 00:08:34;;;;;;;2.13;1.27;;;;;;;6.29;58.21;98609.97;5047743;28;20400;-62
2021/05/05 00:11:00;;;;;;;3.28;1.02;;;;;;;6.50;58.19;98648.19;5047882;28;20033;-61
2021/05/05 00:13:25;;;;;;;2.22;1.50;;;;;;;6.50;58.20;98637.56;5049417;28;20028;-61
2021/05/05 00:15:51;;;;;;;3.35;1.40;;;;;;;6.47;57.90;98644.81;5052030;28;20029;-64
2021/05/05 00:18:16;;;;;;;1.67;1.17;;;;;;;6.49;57.80;98638.53;5049425;28;20044;-61
2021/05/05 00:20:42;;;;;;;2.65;1.20;;;;;;;6.48;57.41;98624.41;5051013;28;20033;-61
2021/05/05 00:23:07;;;;;;;1.88;1.40;;;;;;;6.54;57.29;98654.97;5050896;28;20074;-62
2021/05/05 00:25:33;;;;;;;1.80;1.08;;;;;;;6.31;57.29;98617.84;5051675;28;20413;-60
2021/05/05 00:27:59;;;;;;;3.53;1.30;;;;;;;6.26;57.89;98635.97;5050801;28;20061;-61
2021/05/05 00:30:25;;;;;;;3.13;1.58;;;;;;;6.01;58.37;98616.72;5051178;28;20051;-62
2021/05/05 00:32:51;;;;;;;1.00;0.90;;;;;;;5.95;58.37;98647.25;5050893;28;20064;-63
2021/05/05 00:35:17;;;;;;;1.40;1.30;;;;;;;5.77;58.68;98641.59;5050947;28;20119;-61
2021/05/05 00:37:43;;;;;;;2.65;1.10;;;;;;;5.70;59.32;98651.03;5050468;28;20037;-60
2021/05/05 00:40:10;;;;;;;4.68;1.30;;;;;;;5.57;58.91;98644.03;5050348;28;20467;-61
2021/05/05 00:42:36;;;;;;;1.75;0.93;;;;;;;5.49;59.89;98654.41;5047464;28;20036;-61
2021/05/05 00:45:08;;;;;;;1.25;1.10;;;;;;;5.33;59.82;98628.22;5050547;28;20102;-62
2021/05/05 00:47:34;;;;;;;2.17;1.27;;;;;;;5.26;59.88;98648.25;5050720;28;20025;-62
2021/05/05 00:49:59;;;;;;;3.00;1.40;;;;;;;5.26;59.53;98659.69;5050349;28;20040;-60
2021/05/05 00:52:26;;;;;;;3.72;1.30;;;;;;;5.25;59.88;98658.00;5050367;28;20082;-61
2021/05/05 00:54:52;;;;;;;2.92;1.10;;;;;;;5.30;59.64;98662.97;5050309;28;20422;-61
2021/05/05 00:57:18;;;;;;;2.42;1.30;;;;;;;5.45;59.62;98677.72;5050669;28;20081;-59
2021/05/05 00:59:44;;;;;;;3.58;0.93;;;;;;;5.36;59.61;98649.22;5058063;28;20416;-61
2021/05/05 01:02:11;;;;;;;1.33;1.20;;;;;;;5.60;59.20;98657.06;5059589;28;20595;-62
2021/05/05 01:04:36;;;;;;;1.80;1.10;;;;;;;4.64;58.76;98494.72;5066651;28;20476;-62
2021/05/05 01:07:02;;;;;;;3.40;1.35;;;;;;;5.67;58.91;98661.88;5054669;28;20032;-62
2021/05/05 01:09:29;;;;;;;2.72;1.10;;;;;;;5.59;58.90;98676.63;5065687;28;20135;-62
2021/05/05 01:11:55;;;;;;;1.58;1.20;;;;;;;5.50;59.06;98668.53;5060674;28;20040;-62
2021/05/05 01:14:22;;;;;;;2.63;1.10;;;;;;;5.29;59.60;98645.34;5058796;28;20044;-62
2021/05/05 01:16:49;;;;;;;2.60;1.40;;;;;;;5.31;59.69;98684.09;5065726;28;20029;-62
2021/05/05 01:19:15;;;;;;;1.55;1.45;;;;;;;5.21;59.78;98682.25;5038633;28;20040;-63
2021/05/05 01:21:40;;;;;;;1.77;0.98;;;;;;;5.06;59.99;98666.53;5063960;28;20029;-63
2021/05/05 01:24:06;;;;;;;2.88;1.15;;;;;;;5.07;59.54;98681.50;5061276;28;20059;-62
2021/05/05 01:26:32;;;;;;;2.13;1.30;;;;;;;4.90;60.30;98664.22;5056215;28;20082;-63
2021/05/05 01:29:00;;;;;;;1.60;1.15;;;;;;;4.97;60.53;98688.47;5067325;28;20048;-63
2021/05/05 01:31:26;;;;;;;1.20;1.10;;;;;;;4.54;60.18;98615.66;5056523;28;20044;-62
2021/05/05 01:33:52;;;;;;;2.03;1.20;;;;;;;4.87;60.33;98688.31;5061997;28;20051;-63
2021/05/05 01:36:20;;;;;;;3.50;1.60;;;;;;;4.91;60.35;98692.44;5063407;28;20472;-62
2021/05/05 01:38:47;;;;;;;7.85;1.42;;;;;;;4.72;60.72;98672.59;5054787;28;20040;-62
2021/05/05 01:41:13;;;;;;;1.50;1.35;;;;;;;4.81;60.86;98700.22;5037950;28;20033;-62
2021/05/05 01:43:38;;;;;;;3.60;1.30;;;;;;;4.77;61.10;98700.56;5063947;28;20082;-62
2021/05/05 01:46:04;;;;;;;4.28;1.38;;;;;;;4.74;60.58;98699.00;5060919;28;20025;-61
2021/05/05 01:48:30;;;;;;;1.73;1.40;;;;;;;4.65;60.75;98681.97;5056372;28;20047;-62
2021/05/05 01:50:55;;;;;;;2.70;1.50;;;;;;;4.74;61.39;98701.66;5067444;28;20037;-62
2021/05/05 01:53:21;;;;;;;2.80;1.45;;;;;;;4.41;60.82;98653.69;5055296;28;20411;-63
2021/05/05 01:55:47;;;;;;;3.53;1.50;;;;;;;4.66;61.04;98699.56;5062408;28;20029;-62
2021/05/05 01:58:24;;;;;;;1.88;1.42;;;;;;;4.77;60.85;98719.13;5063473;28;20032;-62
2021/05/05 02:00:49;;;;;;;1.50;1.40;;;;;;;4.76;61.02;98712.13;5054153;28;20025;-62
2021/05/05 02:03:15;;;;;;;1.90;1.33;;;;;;;4.74;60.71;98705.16;5066914;28;20082;-62
2021/05/05 02:05:40;;;;;;;1.77;1.30;;;;;;;4.83;60.37;98716.03;5058075;28;20033;-62
2021/05/05 02:08:06;;;;;;;2.35;1.33;;;;;;;4.84;60.32;98710.59;5059156;28;20040;-62
2021/05/05 02:10:31;;;;;;;1.98;1.30;;;;;;;4.88;60.14;98720.03;5064699;28;20036;-62
2021/05/05 02:12:57;;;;;;;1.60;1.50;;;;;;;4.99;60.04;98723.69;5050630;28;20037;-62
2021/05/05 02:15:22;;;;;;;3.20;1.42;;;;;;;5.03;59.80;98728.63;5065019;28;20060;-62
2021/05/05 02:17:50;;;;;;;4.82;1.25;;;;;;;5.10;59.28;98729.03;5048263;28;20060;-62
2021/05/05 02:20:18;;;;;;;3.38;1.35;;;;;;;5.11;59.10;98729.88;5062210;28;20028;-62
2021/05/05 02:22:44;;;;;;;2.08;1.38;;;;;;;5.16;58.80;98731.19;5049207;28;20033;-62
2021/05/05 02:25:11;;;;;;;2.47;1.23;;;;;;;5.24;58.83;98738.59;5065671;28;20045;-61
2021/05/05 02:27:37;;;;;;;1.85;1.20;;;;;;;5.25;58.67;98724.34;5056485;28;20093;-63
2021/05/05 02:30:06;;;;;;;1.73;1.40;;;;;;;4.87;58.37;98659.16;5059211;28;20060;-62
2021/05/05 02:32:32;;;;;;;2.33;1.20;;;;;;;5.48;58.33;98732.34;5064188;28;20063;-62
2021/05/05 02:34:58;;;;;;;5.40;1.63;;;;;;;5.15;58.13;98670.31;5053022;28;20492;-62
2021/05/05 02:37:24;;;;;;;1.77;1.40;;;;;;;5.65;57.87;98738.19;5064387;28;20090;-61
2021/05/05 02:39:49;;;;;;;2.03;1.20;;;;;;;5.76;57.78;98740.81;5058506;28;20476;-61
2021/05/05 02:42:19;;;;;;;2.00;1.60;;;;;;;5.82;57.45;98740.38;5056853;28;20032;-61
2021/05/05 02:44:48;;;;;;;1.92;1.60;;;;;;;5.55;57.29;98699.06;5065481;28;20036;-62
2021/05/05 02:47:15;;;;;;;1.80;1.20;;;;;;;6.01;56.95;98752.22;5035517;28;20024;-62
2021/05/05 02:49:40;;;;;;;2.95;1.20;;;;;;;6.06;56.64;98747.41;5062384;28;20024;-63
2021/05/05 02:52:06;;;;;;;1.50;1.20;;;;;;;6.09;56.67;98752.47;5060407;28;20040;-62
2021/05/05 02:54:33;;;;;;;2.35;1.50;;;;;;;6.23;55.95;98759.34;5055265;28;20519;-62
2021/05/05 02:57:00;;;;;;;3.30;1.20;;;;;;;6.29;56.05;98750.03;5065885;28;20646;-61
2021/05/05 02:59:26;;;;;;;2.80;1.17;;;;;;;6.25;55.54;98740.59;5054959;28;20383;-61
2021/05/05 03:01:55;;;;;;;3.65;1.45;;;;;;;6.36;55.67;98759.19;5052834;28;20483;-61
2021/05/05 03:04:22;;;;;;;2.33;1.00;;;;;;;6.40;55.50;98750.00;5055662;28;20029;-63
2021/05/05 03:06:47;;;;;;;2.13;1.42;;;;;;;6.60;55.02;98761.69;5053133;28;20404;-62
2021/05/05 03:09:17;;;;;;;2.63;1.42;;;;;;;6.72;54.78;98765.16;5036851;28;20029;-62
2021/05/05 03:11:43;;;;;;;2.33;1.20;;;;;;;6.84;54.56;98775.78;5061835;28;20040;-62
2021/05/05 03:14:09;;;;;;;2.80;1.23;;;;;;;7.00;53.83;98778.00;5060549;28;20116;-62
2021/05/05 03:16:35;;;;;;;2.35;1.25;;;;;;;7.14;53.86;98774.19;5053944;28;20528;-62
2021/05/05 03:19:01;;;;;;;2.28;1.48;;;;;;;7.26;53.24;98773.19;5049561;28;20048;-62
2021/05/05 03:21:26;;;;;;;6.30;1.70;;;;;;;7.41;52.73;98763.06;5063758;28;20412;-61
2021/05/05 03:23:52;;;;;;;1.40;1.10;;;;;;;7.28;52.40;98738.44;5057921;28;20059;-62
2021/05/05 03:26:17;;;;;;;1.40;1.15;;;;;;;7.60;52.06;98769.50;5057116;28;20049;-61
2021/05/05 03:28:43;;;;;;;2.65;1.30;;;;;;;7.80;52.16;98785.56;5065250;28;20044;-62
2021/05/05 03:31:08;;;;;;;3.25;1.52;;;;;;;7.86;51.48;98777.91;5052663;28;20425;-62
2021/05/05 03:33:34;;;;;;;1.73;1.15;;;;;;;7.93;50.90;98759.56;5062425;28;20041;-62
2021/05/05 03:36:00;;;;;;;1.92;1.30;;;;;;;7.79;50.58;98722.59;5058972;28;20079;-62
2021/05/05 03:38:25;;;;;;;1.55;1.15;;;;;;;8.21;50.15;98788.31;5056056;28;20040;-62
2021/05/05 03:40:51;;;;;;;1.42;1.05;;;;;;;8.30;50.18;98790.97;5065829;28;20032;-62
2021/05/05 03:43:16;;;;;;;1.95;1.27;;;;;;;8.49;49.45;98784.03;5053333;28;20119;-63
2021/05/05 03:45:42;;;;;;;1.27;1.13;;;;;;;8.89;48.56;98798.31;5061852;28;20450;-62
2021/05/05 03:48:08;;;;;;;1.63;1.20;;;;;;;9.44;47.03;98799.63;5061393;28;20044;-62
2021/05/05 03:50:35;;;;;;;2.10;1.13;;;;;;;10.31;45.29;98802.19;5058147;28;20029;-62
2021/05/05 03:53:01;;;;;;;2.42;1.23;;;;;;;11.12;43.03;98795.25;5068890;28;20089;-62
2021/05/05 03:55:27;;;;;;;4.25;1.10;;;;;;;11.95;41.71;98798.59;5057818;28;20037;-62
2021/05/05 03:57:52;;;;;;;1.65;1.30;;;;;;;12.99;39.64;98803.91;5063410;28;20524;-63
2021/05/05 04:00:18;;;;;;;1.50;1.13;;;;;;;14.19;37.25;98807.09;5065157;28;20454;-61
2021/05/05 04:02:44;;;;;;;9.27;1.52;;;;;;;15.55;34.97;98806.06;5056464;28;20062;-61
2021/05/05 04:05:10;;;;;;;2.33;1.13;;;;;;;16.89;32.56;98809.88;5069258;28;20489;-61
2021/05/05 04:07:36;;;;;;;1.17;1.02;;;;;;;18.03;30.47;98796.59;5059590;28;20119;-61
2021/05/05 04:10:03;;;;;;;4.00;1.20;;;;;;;18.88;28.76;98801.00;5062242;28;20470;-62
2021/05/05 04:12:29;;;;;;;2.35;0.82;;;;;;;19.17;27.64;98813.44;5066217;28;20044;-61
2021/05/05 04:14:56;;;;;;;1.60;0.90;;;;;;;20.05;26.39;98822.50;5055887;28;20396;-62
2021/05/05 04:17:22;;;;;;;1.75;1.00;;;;;;;20.92;25.36;98810.59;5070161;28;20042;-64
2021/05/05 04:19:47;;;;;;;2.70;1.05;;;;;;;21.45;24.69;98805.03;5064299;28;20032;-60
2021/05/05 04:22:13;;;;;;;1.92;1.20;;;;;;;21.74;24.33;98811.75;5063725;28;20484;-62
2021/05/05 04:24:38;;;;;;;2.08;1.10;;;;;;;22.06;23.79;98828.06;5056858;28;20460;-61
2021/05/05 04:27:04;;;;;;;1.83;1.02;;;;;;;22.03;23.85;98811.31;5068519;28;20075;-62
2021/05/05 04:29:30;;;;;;;1.77;1.02;;;;;;;22.14;23.48;98818.75;5057907;28;20020;-62
2021/05/05 04:31:57;;;;;;;1.90;1.17;;;;;;;22.72;22.50;98816.69;5062410;28;20094;-62
2021/05/05 04:34:25;;;;;;;2.25;1.15;;;;;;;23.43;21.49;98808.00;5065172;28;20440;-62
2021/05/05 04:36:51;;;;;;;2.63;1.13;;;;;;;24.07;20.27;98820.22;5055371;28;20040;-61
2021/05/05 04:39:16;;;;;;;1.38;1.10;;;;;;;24.39;20.24;98817.13;5067799;28;20098;-63
2021/05/05 04:41:42;;;;;;;1.10;0.98;;;;;;;24.96;19.63;98821.06;5059757;28;20040;-61
2021/05/05 04:44:08;;;;;;;2.40;1.10;;;;;;;25.62;18.78;98826.16;5060420;28;20040;-62
2021/05/05 04:46:34;;;;;;;2.67;1.08;;;;;;;26.50;18.21;98819.28;5066213;28;20029;-61
2021/05/05 04:48:59;;;;;;;2.95;1.00;;;;;;;27.27;17.23;98818.59;5055000;28;20071;-62
2021/05/05 04:51:25;;;;;;;2.22;0.98;;;;;;;27.64;16.26;98765.63;5066182;28;20033;-61
2021/05/05 04:53:51;;;;;;;3.65;1.13;;;;;;;28.49;15.95;98807.19;5060825;28;20036;-62
2021/05/05 04:56:16;;;;;;;1.42;1.25;;;;;;;29.26;15.07;98817.69;5059757;28;20041;-62
2021/05/05 04:58:42;;;;;;;2.80;1.40;;;;;;;29.50;14.64;98811.69;5066483;28;20033;-62
2021/05/05 05:01:07;;;;;;;4.20;1.25;;;;;;;29.64;14.46;98828.50;5053826;28;20036;-62
2021/05/05 05:03:33;;;;;;;1.38;1.00;;;;;;;29.83;13.85;98817.75;5065155;28;20039;-62
2021/05/05 05:05:59;;;;;;;3.13;1.05;;;;;;;30.03;14.04;98821.63;5061258;28;20041;-62
2021/05/05 05:08:24;;;;;;;2.47;1.17;;;;;;;30.41;13.21;98800.03;5057846;28;20056;-63
2021/05/05 05:10:50;;;;;;;1.17;1.02;;;;;;;30.97;12.59;98831.31;5068029;28;20121;-61
2021/05/05 05:13:16;;;;;;;2.75;1.00;;;;;;;31.16;12.72;98806.59;5070697;28;20031;-59
2021/05/05 05:15:41;;;;;;;1.35;1.02;;;;;;;31.87;12.24;98823.03;5063831;28;20048;-62
2021/05/05 05:18:07;;;;;;;2.92;1.10;;;;;;;32.66;11.25;98818.38;5048908;28;20036;-63
2021/05/05 05:20:32;;;;;;;2.72;1.10;;;;;;;33.22;10.76;98821.53;5065999;28;20047;-62
2021/05/05 05:22:58;;;;;;;2.08;1.13;;;;;;;33.61;10.61;98817.66;5054614;28;20493;-62
2021/05/05 05:25:25;;;;;;;2.08;1.25;;;;;;;33.94;10.19;98819.63;5066276;28;20065;-63
2021/05/05 05:27:51;;;;;;;2.30;1.00;;;;;;;34.44;10.04;98818.97;5059736;28;20041;-63
2021/05/05 05:30:18;;;;;;;2.42;1.13;;;;;;;35.05;9.79;98805.00;5058751;28;20033;-63
2021/05/05 05:32:43;;;;;;;1.27;1.17;;;;;;;35.47;9.33;98812.41;5067164;28;20062;-63
2021/05/05 05:35:10;;;;;;;2.88;1.23;;;;;;;35.75;8.95;98820.66;5054226;28;20037;-63
2021/05/05 05:37:35;;;;;;;7.63;1.30;;;;;;;36.27;8.71;98814.56;5063929;28;20518;-62
2021/05/05 05:40:01;;;;;;;3.33;1.25;;;;;;;37.01;8.54;98811.41;5060743;28;20037;-62
2021/05/05 05:42:28;;;;;;;2.83;1.20;;;;;;;37.21;8.27;98793.22;5057075;28;20032;-62
2021/05/05 05:44:53;;;;;;;3.08;1.00;;;;;;;37.55;7.50;98815.91;5067163;28;20602;-63
2021/05/05 05:47:19;;;;;;;1.90;1.00;;;;;;;37.83;7.40;98812.72;5055108;28;20135;-63
2021/05/05 05:49:44;;;;;;;3.50;1.40;;;;;;;38.10;7.49;98808.72;5062778;28;20388;-61
2021/05/05 05:52:10;;;;;;;2.10;1.20;;;;;;;38.17;7.54;98811.00;5061674;28;20036;-61
2021/05/05 05:54:35;;;;;;;5.20;1.20;;;;;;;38.56;7.03;98797.88;5055806;28;20453;-62
2021/05/05 05:57:01;;;;;;;4.25;1.40;;;;;;;39.04;6.69;98820.97;5066840;28;20142;-61
2021/05/05 05:59:26;;;;;;;4.18;1.67;;;;;;;39.25;6.64;98792.19;5055599;28;20036;-61
2021/05/05 06:01:52;;;;;;;2.00;1.52;;;;;;;39.54;6.37;98818.47;5061973;28;20439;-64
2021/05/05 06:04:18;;;;;;;4.43;1.52;;;;;;;39.83;6.27;98821.53;5062761;28;20135;-62
2021/05/05 06:06:44;;;;;;;1.70;1.13;;;;;;;39.88;6.09;98807.28;5054296;28;20558;-62
2021/05/05 06:09:09;;;;;;;6.10;1.42;;;;;;;40.11;5.80;98788.09;5066614;28;20405;-63
2021/05/05 06:11:35;;;;;;;2.30;1.20;;;;;;;40.25;5.48;98837.38;5056741;28;20032;-62
2021/05/05 06:14:00;;;;;;;4.40;1.45;;;;;;;40.29;5.78;98832.75;5059109;28;20033;-62
2021/05/05 06:16:26;;;;;;;2.63;1.42;;;;;;;40.64;5.57;98823.88;5063163;28;20044;-64
2021/05/05 06:18:51;;;;;;;3.20;1.40;;;;;;;40.81;5.44;98831.25;5067571;28;20407;-64
2021/05/05 06:21:17;;;;;;;3.38;1.60;;;;;;;40.77;4.93;98840.75;5054151;28;20437;-61
2021/05/05 06:23:42;;;;;;;1.70;1.17;;;;;;;40.73;5.23;98833.03;5062070;28;20064;-62
2021/05/05 06:26:08;;;;;;;3.53;1.40;;;;;;;40.96;5.15;98831.72;5060819;28;20044;-62
2021/05/05 06:28:33;;;;;;;4.15;1.95;;;;;;;41.37;4.96;98832.59;5055026;28;20481;-65
2021/05/05 06:30:59;;;;;;;4.60;1.65;;;;;;;41.35;5.00;98831.31;5066201;28;20043;-65
2021/05/05 06:33:25;;;;;;;5.03;1.70;;;;;;;41.56;4.80;98845.97;5048178;28;20032;-61
2021/05/05 06:35:51;;;;;;;2.20;1.38;;;;;;;41.72;4.65;98840.44;5061676;28;20081;-61
2021/05/05 06:38:17;;;;;;;4.97;1.35;;;;;;;41.74;4.71;98837.28;5059737;28;20207;-63
2021/05/05 06:40:42;;;;;;;3.42;1.50;;;;;;;41.41;4.41;98836.31;5042903;28;20140;-62
2021/05/05 06:43:08;;;;;;;2.35;1.50;;;;;;;41.47;4.49;98817.22;5046547;28;20036;-61
2021/05/05 06:45:33;;;;;;;1.50;1.40;;;;;;;41.69;4.34;98817.84;5043691;28;20033;-62
2021/05/05 06:47:58;;;;;;;2.35;1.48;;;;;;;42.30;4.06;98852.44;5042262;28;20118;-61
2021/05/05 06:50:25;;;;;;;4.20;1.45;;;;;;;42.66;3.70;98847.72;5042374;28;20033;-62
2021/05/05 06:52:50;;;;;;;2.65;1.30;;;;;;;43.00;3.84;98845.34;5045065;28;20089;-62
2021/05/05 06:55:16;;;;;;;3.63;1.20;;;;;;;43.30;3.27;98841.19;5046242;28;20048;-64
2021/05/05 06:57:41;;;;;;;1.65;1.35;;;;;;;43.41;3.65;98841.41;5037004;28;20037;-61
2021/05/05 07:00:08;;;;;;;3.22;1.58;;;;;;;43.88;3.51;98848.00;5039241;28;20500;-63
2021/05/05 07:02:34;;;;;;;1.42;1.33;;;;;;;44.14;2.82;98843.69;5040527;28;20053;-63
2021/05/05 07:04:59;;;;;;;3.50;1.60;;;;;;;44.60;3.00;98831.56;5040018;28;20465;-61
2021/05/05 07:07:28;;;;;;;2.63;1.42;;;;;;;44.82;2.58;98837.53;5039494;28;20054;-61
2021/05/05 07:09:54;;;;;;;3.13;1.65;;;;;;;45.27;2.77;98843.47;5040437;28;20033;-62
2021/05/05 07:12:19;;;;;;;2.88;1.67;;;;;;;45.26;1.98;98841.84;5044828;28;20389;-62
2021/05/05 07:14:45;;;;;;;1.90;1.70;;;;;;;45.49;2.42;98846.59;5041170;28;20058;-61
2021/05/05 07:17:11;;;;;;;2.85;1.50;;;;;;;45.39;2.18;98853.72;5045075;28;20453;-63
2021/05/05 07:19:36;;;;;;;4.43;1.55;;;;;;;44.55;2.14;98829.06;5040613;28;20033;-63
2021/05/05 07:22:02;;;;;;;3.30;1.50;;;;;;;43.90;3.09;98856.91;5026058;28;20033;-61
2021/05/05 07:24:27;;;;;;;2.35;1.52;;;;;;;43.74;3.15;98849.34;5052877;28;20437;-63
2021/05/05 07:26:53;;;;;;;2.80;1.50;;;;;;;43.98;2.73;98840.94;5067526;28;20085;-64
2021/05/05 07:29:19;;;;;;;4.07;1.65;;;;;;;44.65;2.31;98848.19;5058050;28;20624;-61
2021/05/05 07:31:46;;;;;;;3.55;1.60;;;;;;;44.72;2.64;98855.94;5080840;28;20032;-61
2021/05/05 07:34:14;;;;;;;2.50;1.77;;;;;;;44.97;2.76;98827.31;5064741;28;20094;-60
2021/05/05 07:36:43;;;;;;;4.40;1.50;;;;;;;44.34;2.45;98855.72;5058249;28;20044;-61
2021/05/05 07:39:33;;;;;;;2.03;1.65;;;;;;;44.55;2.69;98849.66;5069094;28;20025;-67
2021/05/05 07:45:10;;;;;;;2.63;1.70;;;;;;;42.17;3.48;98851.72;5056266;28;20043;-67
2021/05/05 07:47:38;;;;;;;5.65;2.10;;;;;;;41.37;3.89;98826.16;5046379;28;20040;-67
2021/05/05 07:50:09;;;;;;;8.43;1.90;;;;;;;40.86;4.20;98861.09;5062246;28;20515;-67
2021/05/05 07:52:34;;;;;;;3.22;1.70;;;;;;;38.26;5.15;98862.13;5050680;28;20033;-66
2021/05/05 07:55:01;;;;;;;2.40;1.75;;;;;;;36.47;6.04;98827.13;5067732;28;20042;-66
2021/05/05 07:57:28;;;;;;;5.47;1.90;;;;;;;36.84;5.99;98865.97;5057333;28;20372;-67
2021/05/05 07:59:53;;;;;;;3.25;1.70;;;;;;;36.76;6.12;98859.22;5063965;28;20512;-65
2021/05/05 08:02:19;;;;;;;6.25;1.83;;;;;;;36.78;6.18;98850.56;5065670;28;20046;-67
2021/05/05 08:04:49;;;;;;;1.70;1.60;;;;;;;35.94;6.50;98853.03;5056885;28;20404;-66
2021/05/05 08:07:21;;;;;;;2.65;1.50;;;;;;;33.71;7.33;98863.00;5040640;28;20077;-67
2021/05/05 08:09:47;;;;;;;1.90;1.30;;;;;;;31.72;8.83;98868.25;5064583;28;20492;-66
2021/05/05 08:12:13;;;;;;;1.77;1.38;;;;;;;29.70;10.13;98862.44;5064530;28;20043;-66
2021/05/05 08:14:40;;;;;;;2.60;1.70;;;;;;;27.71;11.43;98858.03;5052576;28;20037;-68
2021/05/05 08:17:07;;;;;;;1.92;1.75;;;;;;;26.42;12.58;98849.91;5083333;28;20045;-68
2021/05/05 08:19:33;;;;;;;3.33;1.67;;;;;;;25.51;13.55;98847.06;5066705;28;20516;-66
2021/05/05 08:21:59;;;;;;;4.90;1.90;;;;;;;24.61;14.21;98832.94;5060866;28;20037;-66
2021/05/05 08:24:26;;;;;;;6.57;1.95;;;;;;;23.64;14.89;98798.44;5059326;28;20060;-66
2021/05/05 08:26:52;;;;;;;5.63;1.63;;;;;;;23.16;16.19;98864.88;5057221;28;20049;-66
2021/05/05 08:29:17;;;;;;;6.60;1.95;;;;;;;22.61;16.78;98863.81;5068597;28;20475;-67
2021/05/05 08:31:43;;;;;;;3.17;1.90;;;;;;;21.85;17.13;98864.69;5075578;28;20503;-68
2021/05/05 08:34:08;;;;;;;2.38;1.80;;;;;;;21.42;17.51;98862.66;5076293;28;20075;-67
2021/05/05 08:36:34;;;;;;;3.80;1.73;;;;;;;21.02;17.90;98861.81;5049813;28;20403;-67
2021/05/05 08:38:59;;;;;;;2.55;1.58;;;;;;;20.71;18.44;98882.38;5055692;28;20045;-67
2021/05/05 08:41:25;;;;;;;5.53;2.13;;;;;;;20.50;18.84;98873.47;5066784;28;20049;-67
2021/05/05 08:43:51;;;;;;;5.22;1.90;;;;;;;20.47;18.62;98865.72;5060826;28;20040;-68
2021/05/05 08:46:17;;;;;;;4.10;1.90;;;;;;;20.47;18.73;98854.84;5038409;28;20564;-68
2021/05/05 08:48:45;;;;;;;2.40;1.90;;;;;;;20.35;19.02;98861.97;5061547;28;20506;-67
2021/05/05 08:51:12;;;;;;;2.85;1.80;;;;;;;20.02;19.26;98868.28;5054550;28;20483;-67
2021/05/05 08:53:40;;;;;;;1.65;1.55;;;;;;;19.78;19.82;98875.97;5064478;28;20488;-65
2021/05/05 08:56:05;;;;;;;3.47;1.70;;;;;;;19.63;19.76;98858.00;5062276;28;20029;-67
2021/05/05 08:58:31;;;;;;;2.28;1.73;;;;;;;19.58;19.93;98873.22;5055478;28;20037;-66
2021/05/05 09:00:56;;;;;;;3.20;1.42;;;;;;;19.56;20.31;98887.03;5067122;28;20037;-68
2021/05/05 09:03:33;;;;;;;5.05;1.90;;;;;;;19.58;20.52;98884.09;5055128;28;20110;-67
2021/05/05 09:06:00;;;;;;;2.60;1.52;;;;;;;19.31;20.60;98871.31;5076909;28;20504;-70
2021/05/05 09:08:28;;;;;;;3.42;1.70;;;;;;;19.36;20.81;98885.09;5064743;28;20079;-68
2021/05/05 09:11:05;;;;;;;5.97;1.70;;;;;;;19.58;20.71;98873.22;5039262;28;20039;-68
2021/05/05 09:13:50;;;;;;;3.60;1.70;;;;;;;19.91;20.61;98861.59;5065676;28;20043;-68
2021/05/05 09:16:25;;;;;;;2.05;1.60;;;;;;;19.94;19.89;98802.25;5063267;28;20670;-68
2021/05/05 09:19:10;;;;;;;4.78;1.77;;;;;;;20.74;20.01;98860.22;5065893;28;20037;-68
2021/05/05 09:21:43;;;;;;;3.00;1.45;;;;;;;20.93;19.34;98863.09;5058276;28;20032;-66
2021/05/05 09:24:29;;;;;;;2.63;1.50;;;;;;;21.03;19.61;98860.78;5063686;28;20086;-67
2021/05/05 09:27:07;;;;;;;4.88;1.58;;;;;;;21.15;19.39;98863.66;5054690;28;20049;-66
2021/05/05 09:29:45;;;;;;;5.57;1.70;;;;;;;20.85;19.79;98866.06;5058957;28;20063;-66
2021/05/05 09:32:12;;;;;;;3.65;1.52;;;;;;;20.58;19.57;98858.78;5054029;28;20037;-66
2021/05/05 09:34:39;;;;;;;5.07;1.40;;;;;;;20.36;19.96;98869.09;5066239;28;20498;-67
2021/05/05 09:37:07;;;;;;;3.42;1.70;;;;;;;20.24;20.34;98866.19;5067296;28;20178;-67
2021/05/05 09:39:40;;;;;;;4.55;1.52;;;;;;;19.92;20.65;98853.22;5055385;28;20032;-65
2021/05/05 09:42:18;;;;;;;3.20;1.70;;;;;;;19.93;20.72;98873.09;5033471;28;20033;-65
2021/05/05 09:44:58;;;;;;;2.45;1.40;;;;;;;19.84;21.16;98877.00;5062889;28;20036;-65
2021/05/05 09:47:25;;;;;;;3.28;1.73;;;;;;;19.67;20.90;98863.00;5040026;28;20094;-64
2021/05/05 09:49:51;;;;;;;3.70;1.88;;;;;;;19.40;21.33;98861.06;5062013;28;20032;-65
2021/05/05 09:52:25;;;;;;;3.92;1.98;;;;;;;19.19;21.71;98887.34;5061645;28;20032;-64
2021/05/05 09:55:02;;;;;;;3.42;1.60;;;;;;;18.99;22.05;98881.00;5053278;28;20048;-65
2021/05/05 09:57:33;;;;;;;2.28;1.80;;;;;;;18.75;22.14;98870.41;5065012;28;20029;-65
2021/05/05 10:00:04;;;;;;;3.83;2.20;;;;;;;18.57;22.35;98876.38;5060136;28;20119;-65
2021/05/05 10:02:45;;;;;;;4.05;1.52;;;;;;;18.52;23.03;98870.72;5056766;28;20523;-65
2021/05/05 10:05:27;;;;;;;4.35;1.58;;;;;;;18.66;22.89;98871.63;5037472;28;20043;-66
2021/05/05 10:07:55;;;;;;;2.13;1.60;;;;;;;18.51;22.06;98796.69;5076916;28;20443;-65
2021/05/05 10:10:25;;;;;;;3.88;1.85;;;;;;;18.98;21.82;98839.47;5063441;28;20111;-72
2021/05/05 10:12:52;;;;;;;4.63;1.73;;;;;;;19.42;21.38;98874.44;5053583;28;20033;-65
2021/05/05 10:15:17;;;;;;;3.88;1.83;;;;;;;19.78;21.14;98867.84;5066450;28;20025;-65
2021/05/05 10:17:51;;;;;;;6.40;3.83;;;;;;;19.93;21.18;98873.09;5048093;28;20056;-64
2021/05/05 10:20:20;;;;;;;5.18;2.22;;;;;;;19.94;21.00;98867.44;5062866;28;20037;-67
2021/05/05 10:22:45;;;;;;;3.53;1.70;;;;;;;19.70;21.19;98854.44;5029631;28;20045;-64
2021/05/05 10:25:16;;;;;;;1.75;1.40;;;;;;;19.74;21.01;98859.25;5066882;28;20060;-64
2021/05/05 10:27:42;;;;;;;2.15;1.65;;;;;;;19.83;21.00;98868.03;5062576;28;20040;-64
2021/05/05 10:30:10;;;;;;;2.92;1.70;;;;;;;19.82;21.05;98858.22;5060807;28;20131;-64
2021/05/05 10:32:36;;;;;;;3.80;1.90;;;;;;;19.93;20.95;98873.91;5054023;28;20064;-64
2021/05/05 10:35:02;;;;;;;2.55;1.65;;;;;;;19.58;21.00;98824.34;5062741;28;20052;-64
2021/05/05 10:37:42;;;;;;;3.35;1.55;;;;;;;19.58;21.14;98816.22;5051853;28;20032;-64
2021/05/05 10:40:26;;;;;;;3.05;1.88;;;;;;;19.55;21.28;98812.06;5055032;28;20029;-64
2021/05/05 10:42:57;;;;;;;2.78;1.52;;;;;;;19.47;21.80;98866.53;5063379;28;20036;-64
2021/05/05 10:45:33;;;;;;;3.72;1.98;;;;;;;19.21;22.39;98879.84;5052250;28;20477;-64
2021/05/05 10:48:12;;;;;;;3.72;1.88;;;;;;;18.89;22.60;98876.72;5057680;28;20075;-65
2021/05/05 10:50:52;;;;;;;3.38;1.90;;;;;;;18.80;23.04;98875.25;5065341;28;20040;-66
2021/05/05 10:53:36;;;;;;;1.77;1.63;;;;;;;19.03;22.87;98868.69;5038588;28;20032;-64
2021/05/05 10:56:27;;;;;;;4.07;1.98;;;;;;;18.92;22.60;98813.13;5058313;28;20079;-64
2021/05/05 10:59:00;;;;;;;2.65;1.70;;;;;;;19.43;22.76;98852.53;5050072;28;20060;-64
2021/05/05 11:01:45;;;;;;;3.92;2.00;;;;;;;19.73;22.15;98865.75;5080372;28;20526;-64
2021/05/05 11:04:14;;;;;;;6.22;2.17;;;;;;;19.73;22.07;98859.47;5060745;28;20438;-64
2021/05/05 11:06:42;;;;;;;3.20;2.08;;;;;;;19.74;22.05;98847.53;5054335;28;20064;-65
2021/05/05 11:09:11;;;;;;;4.32;1.88;;;;;;;20.03;21.92;98864.53;5065794;28;20058;-64
2021/05/05 11:11:41;;;;;;;6.57;2.15;;;;;;;19.75;21.73;98789.47;5071728;28;20035;-63
2021/05/05 11:14:07;;;;;;;7.10;1.90;;;;;;;20.08;21.83;98854.69;5053968;28;20472;-64
2021/05/05 11:16:52;;;;;;;5.38;1.88;;;;;;;20.07;21.88;98833.19;5074190;28;20047;-65
2021/05/05 11:19:41;;;;;;;3.13;1.90;;;;;;;20.32;21.81;98856.97;5064610;28;20111;-65
2021/05/05 11:22:23;;;;;;;3.97;2.40;;;;;;;20.32;21.99;98857.78;5060403;28;20036;-64
2021/05/05 11:24:52;;;;;;;4.53;1.88;;;;;;;20.32;21.80;98862.41;5053015;28;20102;-64
2021/05/05 11:27:38;;;;;;;2.70;2.03;;;;;;;20.02;21.75;98857.44;5065949;28;20607;-65
2021/05/05 11:30:30;;;;;;;6.30;2.10;;;;;;;19.85;22.03;98852.38;5059771;28;20457;-64
2021/05/05 11:32:57;;;;;;;5.00;1.90;;;;;;;19.46;22.50;98862.97;5052894;28;20037;-63
2021/05/05 11:35:27;;;;;;;2.33;1.92;;;;;;;19.13;23.02;98866.41;5064693;28;20070;-64
2021/05/05 11:38:03;;;;;;;4.47;2.03;;;;;;;18.90;23.22;98855.88;5056947;28;20119;-65
2021/05/05 11:40:30;;;;;;;3.70;1.95;;;;;;;18.88;23.24;98864.22;5055394;28;20037;-63
2021/05/05 11:42:55;;;;;;;5.13;2.20;;;;;;;18.60;23.38;98848.03;5066068;28;20043;-64
2021/05/05 11:45:21;;;;;;;4.38;2.00;;;;;;;18.50;24.04;98872.78;5054337;28;20090;-63